sensor_id;sensor_type;location;lat;lon;timestamp;P1;durP1;ratioP1;P2;durP2;ratioP2
43554;SDS011;35085;40.398;-3.702;2023-02-26T00:01:52;11.38;;;4.18;;
43554;SDS011;35085;40.398;-3.702;2023-02-26T00:12:02;14.00;;;4.47;;
43554;SDS011;35085;40.398;-3.702;2023-02-26T00:22:11;10.77;;;4.83;;
43554;SDS011;35085;40.398;-3.702;2023-02-26T00:32:14;8.65;;;4.47;;
43554;SDS011;35085;40.398;-3.702;2023-02-26T00:42:21;9.75;;;4.57;;
43554;SDS011;35085;40.398;-3.702;2023-02-26T01:02:39;7.67;;;3.20;;
43554;SDS011;35085;40.398;-3.702;2023-02-26T01:12:48;6.28;;;3.30;;
43554;SDS011;35085;40.398;-3.702;2023-02-26T01:23:06;7.63;;;3.47;;
43554;SDS011;35085;40.398;-3.702;2023-02-26T01:33:18;7.57;;;3.70;;
43554;SDS011;35085;40.398;-3.702;2023-02-26T01:43:25;6.82;;;3.70;;
43554;SDS011;35085;40.398;-3.702;2023-02-26T01:53:36;8.23;;;4.22;;
43554;SDS011;35085;40.398;-3.702;2023-02-26T02:03:44;5.53;;;3.20;;
43554;SDS011;35085;40.398;-3.702;2023-02-26T02:34:22;8.00;;;4.45;;
43554;SDS011;35085;40.398;-3.702;2023-02-26T02:44:25;9.25;;;4.55;;
43554;SDS011;35085;40.398;-3.702;2023-02-26T02:54:49;11.98;;;4.35;;
43554;SDS011;35085;40.398;-3.702;2023-02-26T03:04:58;11.77;;;4.18;;
43554;SDS011;35085;40.398;-3.702;2023-02-26T03:15:13;7.88;;;3.83;;
43554;SDS011;35085;40.398;-3.702;2023-02-26T03:25:28;11.23;;;4.28;;
43554;SDS011;35085;40.398;-3.702;2023-02-26T03:35:42;9.85;;;4.38;;
43554;SDS011;35085;40.398;-3.702;2023-02-26T03:45:50;11.05;;;4.35;;
43554;SDS011;35085;40.398;-3.702;2023-02-26T04:06:41;9.73;;;5.38;;
43554;SDS011;35085;40.398;-3.702;2023-02-26T04:16:59;7.95;;;4.80;;
43554;SDS011;35085;40.398;-3.702;2023-02-26T04:27:12;9.02;;;4.40;;
43554;SDS011;35085;40.398;-3.702;2023-02-26T04:37:22;6.37;;;3.40;;
43554;SDS011;35085;40.398;-3.702;2023-02-26T04:47:32;7.75;;;4.00;;
43554;SDS011;35085;40.398;-3.702;2023-02-26T04:57:53;6.47;;;3.67;;
43554;SDS011;35085;40.398;-3.702;2023-02-26T05:08:03;10.40;;;4.28;;
43554;SDS011;35085;40.398;-3.702;2023-02-26T05:18:12;7.83;;;3.97;;
43554;SDS011;35085;40.398;-3.702;2023-02-26T05:28:22;7.37;;;4.07;;
43554;SDS011;35085;40.398;-3.702;2023-02-26T05:48:33;8.65;;;4.13;;
43554;SDS011;35085;40.398;-3.702;2023-02-26T05:58:43;8.50;;;4.27;;
43554;SDS011;35085;40.398;-3.702;2023-02-26T06:08:52;9.63;;;4.27;;
43554;SDS011;35085;40.398;-3.702;2023-02-26T06:19:06;9.20;;;4.30;;
43554;SDS011;35085;40.398;-3.702;2023-02-26T06:29:17;7.13;;;3.83;;
43554;SDS011;35085;40.398;-3.702;2023-02-26T06:39:24;7.15;;;4.10;;
43554;SDS011;35085;40.398;-3.702;2023-02-26T06:49:34;6.57;;;4.00;;
43554;SDS011;35085;40.398;-3.702;2023-02-26T06:59:43;7.63;;;4.47;;
43554;SDS011;35085;40.398;-3.702;2023-02-26T07:09:53;10.57;;;4.18;;
43554;SDS011;35085;40.398;-3.702;2023-02-26T07:20:02;12.57;;;5.13;;
43554;SDS011;35085;40.398;-3.702;2023-02-26T07:30:10;8.52;;;4.60;;
43554;SDS011;35085;40.398;-3.702;2023-02-26T07:40:16;12.20;;;5.28;;
43554;SDS011;35085;40.398;-3.702;2023-02-26T07:50:26;9.32;;;4.70;;
43554;SDS011;35085;40.398;-3.702;2023-02-26T08:00:34;9.25;;;5.03;;
43554;SDS011;35085;40.398;-3.702;2023-02-26T08:10:43;9.30;;;4.57;;
43554;SDS011;35085;40.398;-3.702;2023-02-26T08:20:53;9.23;;;4.60;;
43554;SDS011;35085;40.398;-3.702;2023-02-26T08:31:03;10.18;;;5.28;;
43554;SDS011;35085;40.398;-3.702;2023-02-26T08:41:11;14.05;;;6.00;;
43554;SDS011;35085;40.398;-3.702;2023-02-26T09:01:24;14.32;;;6.50;;
43554;SDS011;35085;40.398;-3.702;2023-02-26T09:11:33;9.47;;;6.03;;
43554;SDS011;35085;40.398;-3.702;2023-02-26T09:21:40;10.55;;;6.13;;
43554;SDS011;35085;40.398;-3.702;2023-02-26T09:31:50;15.23;;;9.45;;
43554;SDS011;35085;40.398;-3.702;2023-02-26T09:53:06;11.70;;;7.40;;
43554;SDS011;35085;40.398;-3.702;2023-02-26T10:03:01;13.82;;;7.85;;
43554;SDS011;35085;40.398;-3.702;2023-02-26T10:13:07;16.92;;;8.95;;
43554;SDS011;35085;40.398;-3.702;2023-02-26T10:33:49;12.52;;;8.68;;
43554;SDS011;35085;40.398;-3.702;2023-02-26T10:44:13;17.23;;;8.55;;
43554;SDS011;35085;40.398;-3.702;2023-02-26T10:54:28;7.82;;;5.38;;
43554;SDS011;35085;40.398;-3.702;2023-02-26T11:04:32;11.27;;;6.15;;
43554;SDS011;35085;40.398;-3.702;2023-02-26T11:14:35;10.32;;;5.13;;
43554;SDS011;35085;40.398;-3.702;2023-02-26T11:24:46;7.30;;;4.32;;
43554;SDS011;35085;40.398;-3.702;2023-02-26T11:34:52;9.52;;;4.50;;
43554;SDS011;35085;40.398;-3.702;2023-02-26T11:45:02;6.67;;;4.20;;
43554;SDS011;35085;40.398;-3.702;2023-02-26T12:05:21;3.13;;;1.50;;
43554;SDS011;35085;40.398;-3.702;2023-02-26T12:15:38;2.67;;;1.30;;
43554;SDS011;35085;40.398;-3.702;2023-02-26T13:16:43;5.25;;;2.40;;
43554;SDS011;35085;40.398;-3.702;2023-02-26T13:26:50;4.03;;;2.33;;
43554;SDS011;35085;40.398;-3.702;2023-02-26T13:37:01;3.63;;;1.83;;
43554;SDS011;35085;40.398;-3.702;2023-02-26T14:07:46;8.73;;;2.80;;
43554;SDS011;35085;40.398;-3.702;2023-02-26T14:18:00;5.60;;;2.53;;
43554;SDS011;35085;40.398;-3.702;2023-02-26T14:38:25;3.03;;;1.58;;
43554;SDS011;35085;40.398;-3.702;2023-02-26T14:48:28;4.20;;;1.50;;
43554;SDS011;35085;40.398;-3.702;2023-02-26T15:19:07;2.35;;;1.52;;
43554;SDS011;35085;40.398;-3.702;2023-02-26T15:29:13;5.10;;;2.10;;
43554;SDS011;35085;40.398;-3.702;2023-02-26T15:39:21;3.00;;;1.60;;
43554;SDS011;35085;40.398;-3.702;2023-02-26T15:49:35;3.75;;;1.50;;
43554;SDS011;35085;40.398;-3.702;2023-02-26T15:59:42;6.03;;;2.17;;
43554;SDS011;35085;40.398;-3.702;2023-02-26T16:09:51;8.57;;;2.72;;
43554;SDS011;35085;40.398;-3.702;2023-02-26T16:19:58;2.63;;;1.38;;
43554;SDS011;35085;40.398;-3.702;2023-02-26T16:30:06;2.53;;;0.85;;
43554;SDS011;35085;40.398;-3.702;2023-02-26T16:50:27;5.50;;;1.70;;
43554;SDS011;35085;40.398;-3.702;2023-02-26T17:00:32;5.35;;;1.60;;
43554;SDS011;35085;40.398;-3.702;2023-02-26T17:10:41;4.15;;;1.20;;
43554;SDS011;35085;40.398;-3.702;2023-02-26T17:20:45;5.25;;;1.30;;
43554;SDS011;35085;40.398;-3.702;2023-02-26T17:30:55;3.80;;;1.33;;
43554;SDS011;35085;40.398;-3.702;2023-02-26T17:41:03;6.13;;;1.33;;
43554;SDS011;35085;40.398;-3.702;2023-02-26T17:51:12;2.92;;;1.30;;
43554;SDS011;35085;40.398;-3.702;2023-02-26T18:01:20;8.02;;;1.52;;
43554;SDS011;35085;40.398;-3.702;2023-02-26T18:11:30;4.50;;;1.95;;
43554;SDS011;35085;40.398;-3.702;2023-02-26T18:21:39;3.63;;;1.50;;
43554;SDS011;35085;40.398;-3.702;2023-02-26T18:31:48;6.07;;;2.20;;
43554;SDS011;35085;40.398;-3.702;2023-02-26T18:41:57;8.05;;;2.83;;
43554;SDS011;35085;40.398;-3.702;2023-02-26T18:52:06;17.03;;;6.57;;
43554;SDS011;35085;40.398;-3.702;2023-02-26T19:02:15;22.98;;;9.38;;
43554;SDS011;35085;40.398;-3.702;2023-02-26T19:12:27;8.20;;;2.58;;
43554;SDS011;35085;40.398;-3.702;2023-02-26T19:22:42;8.75;;;3.75;;
43554;SDS011;35085;40.398;-3.702;2023-02-26T19:32:50;8.02;;;2.53;;
43554;SDS011;35085;40.398;-3.702;2023-02-26T19:42:57;8.18;;;2.45;;
43554;SDS011;35085;40.398;-3.702;2023-02-26T19:53:06;6.32;;;2.38;;
43554;SDS011;35085;40.398;-3.702;2023-02-26T20:03:14;7.25;;;3.58;;
43554;SDS011;35085;40.398;-3.702;2023-02-26T20:13:24;19.88;;;6.03;;
43554;SDS011;35085;40.398;-3.702;2023-02-26T20:23:30;8.23;;;2.38;;
43554;SDS011;35085;40.398;-3.702;2023-02-26T20:33:41;9.68;;;2.83;;
43554;SDS011;35085;40.398;-3.702;2023-02-26T20:43:50;4.50;;;2.00;;
43554;SDS011;35085;40.398;-3.702;2023-02-26T20:53:58;7.72;;;1.70;;
43554;SDS011;35085;40.398;-3.702;2023-02-26T21:04:08;5.53;;;1.53;;
43554;SDS011;35085;40.398;-3.702;2023-02-26T21:14:17;8.47;;;2.57;;
43554;SDS011;35085;40.398;-3.702;2023-02-26T21:24:26;6.40;;;2.80;;
43554;SDS011;35085;40.398;-3.702;2023-02-26T21:34:35;6.40;;;2.50;;
43554;SDS011;35085;40.398;-3.702;2023-02-26T21:44:44;8.32;;;3.60;;
43554;SDS011;35085;40.398;-3.702;2023-02-26T21:54:53;4.88;;;2.40;;
43554;SDS011;35085;40.398;-3.702;2023-02-26T22:05:01;3.90;;;1.08;;
43554;SDS011;35085;40.398;-3.702;2023-02-26T22:15:10;3.80;;;1.17;;
43554;SDS011;35085;40.398;-3.702;2023-02-26T22:25:18;3.17;;;1.10;;
43554;SDS011;35085;40.398;-3.702;2023-02-26T22:35:28;5.43;;;1.47;;
43554;SDS011;35085;40.398;-3.702;2023-02-26T22:45:36;3.75;;;1.08;;
43554;SDS011;35085;40.398;-3.702;2023-02-26T22:55:46;2.43;;;1.03;;
43554;SDS011;35085;40.398;-3.702;2023-02-26T23:05:55;5.50;;;1.02;;
43554;SDS011;35085;40.398;-3.702;2023-02-26T23:16:05;2.77;;;0.93;;
43554;SDS011;35085;40.398;-3.702;2023-02-26T23:26:13;3.08;;;1.00;;
43554;SDS011;35085;40.398;-3.702;2023-02-26T23:36:23;3.50;;;0.70;;
43554;SDS011;35085;40.398;-3.702;2023-02-26T23:46:31;1.88;;;0.93;;
43554;SDS011;35085;40.398;-3.702;2023-02-26T23:56:40;6.37;;;0.93;;
